sensor_id;sensor_type;location;lat;lon;timestamp;temperature;humidity
37268;DHT22;23154;52.542;13.362;2022-09-13T00:00:32;14.80;99.90
37268;DHT22;23154;52.542;13.362;2022-09-13T00:02:58;14.70;99.90
37268;DHT22;23154;52.542;13.362;2022-09-13T00:05:23;14.60;99.90
37268;DHT22;23154;52.542;13.362;2022-09-13T00:07:49;14.50;99.90
37268;DHT22;23154;52.542;13.362;2022-09-13T00:10:15;14.60;99.90
37268;DHT22;23154;52.542;13.362;2022-09-13T00:12:41;14.60;99.90
37268;DHT22;23154;52.542;13.362;2022-09-13T00:15:07;14.50;99.90
37268;DHT22;23154;52.542;13.362;2022-09-13T00:17:34;14.50;99.90
37268;DHT22;23154;52.542;13.362;2022-09-13T00:20:00;14.40;99.90
37268;DHT22;23154;52.542;13.362;2022-09-13T00:22:26;14.40;99.90
37268;DHT22;23154;52.542;13.362;2022-09-13T00:24:52;14.50;99.90
37268;DHT22;23154;52.542;13.362;2022-09-13T00:27:18;14.50;99.90
37268;DHT22;23154;52.542;13.362;2022-09-13T00:29:43;14.50;99.90
37268;DHT22;23154;52.542;13.362;2022-09-13T00:32:09;14.40;99.90
37268;DHT22;23154;52.542;13.362;2022-09-13T00:34:35;14.40;99.90
37268;DHT22;23154;52.542;13.362;2022-09-13T00:37:00;14.40;99.90
37268;DHT22;23154;52.542;13.362;2022-09-13T00:39:26;14.30;99.90
37268;DHT22;23154;52.542;13.362;2022-09-13T00:41:51;14.20;99.90
37268;DHT22;23154;52.542;13.362;2022-09-13T00:47:29;14.40;99.90
37268;DHT22;23154;52.542;13.362;2022-09-13T00:50:05;14.30;99.90
37268;DHT22;23154;52.542;13.362;2022-09-13T00:52:33;14.30;99.90
37268;DHT22;23154;52.542;13.362;2022-09-13T00:55:13;14.40;99.90
37268;DHT22;23154;52.542;13.362;2022-09-13T00:57:41;14.30;99.90
37268;DHT22;23154;52.542;13.362;2022-09-13T01:00:11;14.30;99.90
37268;DHT22;23154;52.542;13.362;2022-09-13T01:02:45;14.50;99.90
37268;DHT22;23154;52.542;13.362;2022-09-13T01:05:14;14.40;99.90
37268;DHT22;23154;52.542;13.362;2022-09-13T01:07:42;14.30;99.90
37268;DHT22;23154;52.542;13.362;2022-09-13T01:10:08;14.20;99.90
37268;DHT22;23154;52.542;13.362;2022-09-13T01:12:53;14.20;99.90
37268;DHT22;23154;52.542;13.362;2022-09-13T01:15:21;14.20;99.90
37268;DHT22;23154;52.542;13.362;2022-09-13T01:17:47;14.10;99.90
37268;DHT22;23154;52.542;13.362;2022-09-13T01:20:13;14.00;99.90
37268;DHT22;23154;52.542;13.362;2022-09-13T01:31:16;14.00;99.90
37268;DHT22;23154;52.542;13.362;2022-09-13T01:39:05;14.00;99.90
37268;DHT22;23154;52.542;13.362;2022-09-13T01:49:58;13.90;99.90
37268;DHT22;23154;52.542;13.362;2022-09-13T01:55:13;13.90;99.90
37268;DHT22;23154;52.542;13.362;2022-09-13T02:00:36;13.90;99.90
37268;DHT22;23154;52.542;13.362;2022-09-13T02:03:22;14.00;99.90
37268;DHT22;23154;52.542;13.362;2022-09-13T02:05:58;13.90;99.90
37268;DHT22;23154;52.542;13.362;2022-09-13T02:08:26;13.90;99.90
37268;DHT22;23154;52.542;13.362;2022-09-13T02:11:01;13.90;99.90
37268;DHT22;23154;52.542;13.362;2022-09-13T02:13:35;13.90;99.90
37268;DHT22;23154;52.542;13.362;2022-09-13T02:16:08;13.90;99.90
37268;DHT22;23154;52.542;13.362;2022-09-13T02:18:40;13.90;99.90
37268;DHT22;23154;52.542;13.362;2022-09-13T02:21:24;13.80;99.90
37268;DHT22;23154;52.542;13.362;2022-09-13T02:23:56;13.80;99.90
37268;DHT22;23154;52.542;13.362;2022-09-13T02:26:23;13.80;99.90
37268;DHT22;23154;52.542;13.362;2022-09-13T02:28:55;13.80;99.90
37268;DHT22;23154;52.542;13.362;2022-09-13T02:34:37;13.90;99.90
37268;DHT22;23154;52.542;13.362;2022-09-13T02:37:05;13.70;99.90
37268;DHT22;23154;52.542;13.362;2022-09-13T02:39:36;13.80;99.90
37268;DHT22;23154;52.542;13.362;2022-09-13T02:42:25;13.90;99.90
37268;DHT22;23154;52.542;13.362;2022-09-13T02:44:52;13.90;99.90
37268;DHT22;23154;52.542;13.362;2022-09-13T02:50:12;13.90;99.90
37268;DHT22;23154;52.542;13.362;2022-09-13T02:52:49;14.00;99.90
37268;DHT22;23154;52.542;13.362;2022-09-13T02:55:43;14.00;99.90
37268;DHT22;23154;52.542;13.362;2022-09-13T02:58:26;13.90;99.90
37268;DHT22;23154;52.542;13.362;2022-09-13T03:00:53;13.90;99.90
37268;DHT22;23154;52.542;13.362;2022-09-13T03:03:20;13.80;99.90
37268;DHT22;23154;52.542;13.362;2022-09-13T03:05:46;13.90;99.90
37268;DHT22;23154;52.542;13.362;2022-09-13T03:08:13;13.90;99.90
37268;DHT22;23154;52.542;13.362;2022-09-13T03:13:57;14.10;99.90
37268;DHT22;23154;52.542;13.362;2022-09-13T03:19:27;13.90;99.90
37268;DHT22;23154;52.542;13.362;2022-09-13T03:22:36;13.90;99.90
37268;DHT22;23154;52.542;13.362;2022-09-13T03:30:33;13.90;99.90
37268;DHT22;23154;52.542;13.362;2022-09-13T03:35:32;13.80;99.90
37268;DHT22;23154;52.542;13.362;2022-09-13T03:40:54;13.80;99.90
37268;DHT22;23154;52.542;13.362;2022-09-13T03:43:35;13.80;99.90
37268;DHT22;23154;52.542;13.362;2022-09-13T03:46:06;13.90;99.90
37268;DHT22;23154;52.542;13.362;2022-09-13T03:48:38;13.90;99.90
37268;DHT22;23154;52.542;13.362;2022-09-13T03:51:05;13.90;99.90
37268;DHT22;23154;52.542;13.362;2022-09-13T03:53:35;13.90;99.90
37268;DHT22;23154;52.542;13.362;2022-09-13T03:56:18;13.90;99.90
37268;DHT22;23154;52.542;13.362;2022-09-13T03:58:45;13.90;99.90
37268;DHT22;23154;52.542;13.362;2022-09-13T04:01:10;14.00;99.90
37268;DHT22;23154;52.542;13.362;2022-09-13T04:03:36;14.00;99.90
37268;DHT22;23154;52.542;13.362;2022-09-13T04:06:03;14.00;99.90
37268;DHT22;23154;52.542;13.362;2022-09-13T04:08:30;14.00;99.90
37268;DHT22;23154;52.542;13.362;2022-09-13T04:10:55;14.10;99.90
37268;DHT22;23154;52.542;13.362;2022-09-13T04:13:21;14.20;99.90
37268;DHT22;23154;52.542;13.362;2022-09-13T04:15:47;14.30;99.90
37268;DHT22;23154;52.542;13.362;2022-09-13T04:18:14;14.20;99.90
37268;DHT22;23154;52.542;13.362;2022-09-13T04:20:40;14.10;99.90
37268;DHT22;23154;52.542;13.362;2022-09-13T04:23:06;14.10;99.90
37268;DHT22;23154;52.542;13.362;2022-09-13T04:25:32;14.00;99.90
37268;DHT22;23154;52.542;13.362;2022-09-13T04:27:58;14.10;99.90
37268;DHT22;23154;52.542;13.362;2022-09-13T04:30:25;14.00;99.90
37268;DHT22;23154;52.542;13.362;2022-09-13T04:32:51;14.00;99.90
37268;DHT22;23154;52.542;13.362;2022-09-13T04:35:17;14.00;99.90
37268;DHT22;23154;52.542;13.362;2022-09-13T04:37:44;14.10;99.90
37268;DHT22;23154;52.542;13.362;2022-09-13T04:40:10;14.10;99.90
37268;DHT22;23154;52.542;13.362;2022-09-13T04:42:35;14.10;99.90
37268;DHT22;23154;52.542;13.362;2022-09-13T04:45:03;14.10;99.90
37268;DHT22;23154;52.542;13.362;2022-09-13T04:47:28;14.10;99.90
37268;DHT22;23154;52.542;13.362;2022-09-13T04:49:55;14.00;99.90
37268;DHT22;23154;52.542;13.362;2022-09-13T04:52:20;14.10;99.90
37268;DHT22;23154;52.542;13.362;2022-09-13T04:54:46;14.10;99.90
37268;DHT22;23154;52.542;13.362;2022-09-13T04:57:13;14.10;99.90
37268;DHT22;23154;52.542;13.362;2022-09-13T04:59:39;14.10;99.90
37268;DHT22;23154;52.542;13.362;2022-09-13T05:02:05;14.20;99.90
37268;DHT22;23154;52.542;13.362;2022-09-13T05:04:30;14.10;99.90
37268;DHT22;23154;52.542;13.362;2022-09-13T05:06:56;14.20;99.90
37268;DHT22;23154;52.542;13.362;2022-09-13T05:09:23;14.40;99.90
37268;DHT22;23154;52.542;13.362;2022-09-13T05:11:48;14.40;99.90
37268;DHT22;23154;52.542;13.362;2022-09-13T05:14:14;14.50;99.90
37268;DHT22;23154;52.542;13.362;2022-09-13T05:16:40;14.40;99.90
37268;DHT22;23154;52.542;13.362;2022-09-13T05:19:05;14.50;99.90
37268;DHT22;23154;52.542;13.362;2022-09-13T05:21:31;14.50;99.90
37268;DHT22;23154;52.542;13.362;2022-09-13T05:23:57;14.50;99.90
37268;DHT22;23154;52.542;13.362;2022-09-13T05:26:24;14.50;99.90
37268;DHT22;23154;52.542;13.362;2022-09-13T05:28:50;14.60;99.90
37268;DHT22;23154;52.542;13.362;2022-09-13T05:31:21;14.50;99.90
37268;DHT22;23154;52.542;13.362;2022-09-13T05:33:56;14.50;99.90
37268;DHT22;23154;52.542;13.362;2022-09-13T05:36:22;14.40;99.90
37268;DHT22;23154;52.542;13.362;2022-09-13T05:38:47;14.50;99.90
37268;DHT22;23154;52.542;13.362;2022-09-13T05:41:13;14.50;99.90
37268;DHT22;23154;52.542;13.362;2022-09-13T05:43:38;14.40;99.90
37268;DHT22;23154;52.542;13.362;2022-09-13T05:46:06;14.50;99.90
37268;DHT22;23154;52.542;13.362;2022-09-13T05:48:34;14.50;99.90
37268;DHT22;23154;52.542;13.362;2022-09-13T05:51:10;14.50;99.90
37268;DHT22;23154;52.542;13.362;2022-09-13T05:53:41;14.40;99.90
37268;DHT22;23154;52.542;13.362;2022-09-13T05:56:09;14.50;99.90
37268;DHT22;23154;52.542;13.362;2022-09-13T05:58:40;14.50;99.90
37268;DHT22;23154;52.542;13.362;2022-09-13T06:01:06;14.60;99.90
37268;DHT22;23154;52.542;13.362;2022-09-13T06:03:31;14.50;99.90
37268;DHT22;23154;52.542;13.362;2022-09-13T06:05:57;14.40;99.90
37268;DHT22;23154;52.542;13.362;2022-09-13T06:08:24;14.20;99.90
37268;DHT22;23154;52.542;13.362;2022-09-13T06:10:58;14.30;99.90
37268;DHT22;23154;52.542;13.362;2022-09-13T06:13:25;14.30;99.90
37268;DHT22;23154;52.542;13.362;2022-09-13T06:15:51;14.20;99.90
37268;DHT22;23154;52.542;13.362;2022-09-13T06:18:18;14.20;99.90
37268;DHT22;23154;52.542;13.362;2022-09-13T06:20:44;14.10;99.90
37268;DHT22;23154;52.542;13.362;2022-09-13T06:23:10;14.10;99.90
37268;DHT22;23154;52.542;13.362;2022-09-13T06:25:35;14.00;99.90
37268;DHT22;23154;52.542;13.362;2022-09-13T06:28:02;14.00;99.90
37268;DHT22;23154;52.542;13.362;2022-09-13T06:30:28;13.90;99.90
37268;DHT22;23154;52.542;13.362;2022-09-13T06:32:55;13.90;99.90
37268;DHT22;23154;52.542;13.362;2022-09-13T06:35:21;13.90;99.90
37268;DHT22;23154;52.542;13.362;2022-09-13T06:37:47;14.00;99.90
37268;DHT22;23154;52.542;13.362;2022-09-13T06:40:12;14.20;99.90
37268;DHT22;23154;52.542;13.362;2022-09-13T06:42:38;14.20;99.90
37268;DHT22;23154;52.542;13.362;2022-09-13T06:45:04;14.20;99.90
37268;DHT22;23154;52.542;13.362;2022-09-13T06:47:31;14.30;99.90
37268;DHT22;23154;52.542;13.362;2022-09-13T06:49:56;14.40;99.90
37268;DHT22;23154;52.542;13.362;2022-09-13T06:52:23;14.60;99.90
37268;DHT22;23154;52.542;13.362;2022-09-13T06:54:49;14.80;99.90
37268;DHT22;23154;52.542;13.362;2022-09-13T06:57:14;14.90;99.90
37268;DHT22;23154;52.542;13.362;2022-09-13T06:59:40;14.90;99.90
37268;DHT22;23154;52.542;13.362;2022-09-13T07:02:05;14.80;99.90
37268;DHT22;23154;52.542;13.362;2022-09-13T07:04:31;15.00;99.90
37268;DHT22;23154;52.542;13.362;2022-09-13T07:06:58;14.90;99.90
37268;DHT22;23154;52.542;13.362;2022-09-13T07:09:24;15.00;99.90
37268;DHT22;23154;52.542;13.362;2022-09-13T07:11:52;15.00;99.90
37268;DHT22;23154;52.542;13.362;2022-09-13T07:14:22;14.90;99.90
37268;DHT22;23154;52.542;13.362;2022-09-13T07:16:49;14.90;99.90
37268;DHT22;23154;52.542;13.362;2022-09-13T07:19:18;14.90;99.90
37268;DHT22;23154;52.542;13.362;2022-09-13T07:21:44;15.10;99.90
37268;DHT22;23154;52.542;13.362;2022-09-13T07:24:10;15.20;99.90
37268;DHT22;23154;52.542;13.362;2022-09-13T07:26:36;15.30;99.90
37268;DHT22;23154;52.542;13.362;2022-09-13T07:29:05;15.40;99.90
37268;DHT22;23154;52.542;13.362;2022-09-13T07:31:37;15.30;99.90
37268;DHT22;23154;52.542;13.362;2022-09-13T07:34:05;15.40;99.90
37268;DHT22;23154;52.542;13.362;2022-09-13T07:36:33;15.40;99.90
37268;DHT22;23154;52.542;13.362;2022-09-13T07:38:59;15.50;99.90
37268;DHT22;23154;52.542;13.362;2022-09-13T07:41:26;15.60;99.90
37268;DHT22;23154;52.542;13.362;2022-09-13T07:43:52;15.50;99.90
37268;DHT22;23154;52.542;13.362;2022-09-13T07:46:23;15.50;99.90
37268;DHT22;23154;52.542;13.362;2022-09-13T07:48:51;15.60;99.90
37268;DHT22;23154;52.542;13.362;2022-09-13T07:51:20;15.90;99.90
37268;DHT22;23154;52.542;13.362;2022-09-13T07:53:47;16.00;99.90
37268;DHT22;23154;52.542;13.362;2022-09-13T07:56:16;16.10;99.90
37268;DHT22;23154;52.542;13.362;2022-09-13T07:58:44;16.10;99.90
37268;DHT22;23154;52.542;13.362;2022-09-13T08:03:41;16.20;99.90
37268;DHT22;23154;52.542;13.362;2022-09-13T08:06:07;16.20;99.90
37268;DHT22;23154;52.542;13.362;2022-09-13T08:08:34;16.40;99.90
37268;DHT22;23154;52.542;13.362;2022-09-13T08:11:01;16.60;99.90
37268;DHT22;23154;52.542;13.362;2022-09-13T08:13:30;16.60;99.90
37268;DHT22;23154;52.542;13.362;2022-09-13T08:16:05;16.60;99.90
37268;DHT22;23154;52.542;13.362;2022-09-13T08:18:34;16.70;99.90
37268;DHT22;23154;52.542;13.362;2022-09-13T08:21:00;16.80;99.90
37268;DHT22;23154;52.542;13.362;2022-09-13T08:23:26;16.90;99.90
37268;DHT22;23154;52.542;13.362;2022-09-13T08:25:51;16.90;99.90
37268;DHT22;23154;52.542;13.362;2022-09-13T08:28:18;16.90;99.90
37268;DHT22;23154;52.542;13.362;2022-09-13T08:30:47;17.10;99.90
37268;DHT22;23154;52.542;13.362;2022-09-13T08:33:13;17.10;99.90
37268;DHT22;23154;52.542;13.362;2022-09-13T08:35:39;17.20;99.90
37268;DHT22;23154;52.542;13.362;2022-09-13T08:38:06;17.30;99.90
37268;DHT22;23154;52.542;13.362;2022-09-13T08:40:37;17.20;99.90
37268;DHT22;23154;52.542;13.362;2022-09-13T08:45:39;17.50;99.90
37268;DHT22;23154;52.542;13.362;2022-09-13T08:48:15;17.50;99.90
37268;DHT22;23154;52.542;13.362;2022-09-13T08:50:44;17.60;99.90
37268;DHT22;23154;52.542;13.362;2022-09-13T08:53:24;17.40;99.90
37268;DHT22;23154;52.542;13.362;2022-09-13T08:56:02;17.60;99.90
37268;DHT22;23154;52.542;13.362;2022-09-13T09:01:24;18.00;99.90
37268;DHT22;23154;52.542;13.362;2022-09-13T09:06:46;18.20;99.90
37268;DHT22;23154;52.542;13.362;2022-09-13T09:09:17;18.20;99.90
37268;DHT22;23154;52.542;13.362;2022-09-13T09:11:54;18.10;99.90
37268;DHT22;23154;52.542;13.362;2022-09-13T09:14:32;18.10;99.90
37268;DHT22;23154;52.542;13.362;2022-09-13T09:17:05;17.80;99.90
37268;DHT22;23154;52.542;13.362;2022-09-13T09:19:38;18.00;99.90
37268;DHT22;23154;52.542;13.362;2022-09-13T09:22:18;18.00;99.90
37268;DHT22;23154;52.542;13.362;2022-09-13T09:24:52;18.50;99.90
37268;DHT22;23154;52.542;13.362;2022-09-13T09:27:19;18.80;99.90
37268;DHT22;23154;52.542;13.362;2022-09-13T09:29:50;19.10;99.90
37268;DHT22;23154;52.542;13.362;2022-09-13T09:35:30;18.90;99.90
37268;DHT22;23154;52.542;13.362;2022-09-13T09:40:51;19.10;99.90
37268;DHT22;23154;52.542;13.362;2022-09-13T09:43:24;19.10;99.90
37268;DHT22;23154;52.542;13.362;2022-09-13T09:45:56;19.50;99.90
37268;DHT22;23154;52.542;13.362;2022-09-13T09:48:26;19.80;99.90
37268;DHT22;23154;52.542;13.362;2022-09-13T09:50:56;20.20;99.90
37268;DHT22;23154;52.542;13.362;2022-09-13T09:53:32;20.40;99.90
37268;DHT22;23154;52.542;13.362;2022-09-13T09:56:17;20.90;99.90
37268;DHT22;23154;52.542;13.362;2022-09-13T09:58:45;21.10;99.90
37268;DHT22;23154;52.542;13.362;2022-09-13T10:01:31;20.70;99.90
37268;DHT22;23154;52.542;13.362;2022-09-13T10:06:37;20.70;99.90
37268;DHT22;23154;52.542;13.362;2022-09-13T10:11:50;20.70;99.90
37268;DHT22;23154;52.542;13.362;2022-09-13T10:14:34;21.10;99.90
37268;DHT22;23154;52.542;13.362;2022-09-13T10:17:03;21.00;99.90
37268;DHT22;23154;52.542;13.362;2022-09-13T10:19:30;21.20;99.90
37268;DHT22;23154;52.542;13.362;2022-09-13T10:22:01;21.50;99.90
37268;DHT22;23154;52.542;13.362;2022-09-13T10:24:27;21.60;99.90
37268;DHT22;23154;52.542;13.362;2022-09-13T10:26:54;21.60;99.90
37268;DHT22;23154;52.542;13.362;2022-09-13T10:29:21;21.30;99.90
37268;DHT22;23154;52.542;13.362;2022-09-13T10:31:49;21.10;99.90
37268;DHT22;23154;52.542;13.362;2022-09-13T10:34:24;20.90;99.90
37268;DHT22;23154;52.542;13.362;2022-09-13T10:37:04;21.10;99.90
37268;DHT22;23154;52.542;13.362;2022-09-13T10:39:34;21.30;99.90
37268;DHT22;23154;52.542;13.362;2022-09-13T10:42:08;21.10;99.90
37268;DHT22;23154;52.542;13.362;2022-09-13T10:45:07;20.90;99.90
37268;DHT22;23154;52.542;13.362;2022-09-13T10:47:42;20.80;99.90
37268;DHT22;23154;52.542;13.362;2022-09-13T10:52:51;20.60;99.90
37268;DHT22;23154;52.542;13.362;2022-09-13T11:00:59;20.80;99.90
37268;DHT22;23154;52.542;13.362;2022-09-13T11:11:21;20.00;99.90
37268;DHT22;23154;52.542;13.362;2022-09-13T11:28:39;19.90;99.90
37268;DHT22;23154;52.542;13.362;2022-09-13T11:31:24;20.00;99.90
37268;DHT22;23154;52.542;13.362;2022-09-13T11:52:56;19.80;99.90
37268;DHT22;23154;52.542;13.362;2022-09-13T11:55:25;19.70;99.90
37268;DHT22;23154;52.542;13.362;2022-09-13T11:58:09;19.60;99.90
37268;DHT22;23154;52.542;13.362;2022-09-13T12:00:48;19.30;99.90
37268;DHT22;23154;52.542;13.362;2022-09-13T12:03:33;19.20;99.90
37268;DHT22;23154;52.542;13.362;2022-09-13T12:06:26;19.10;99.90
37268;DHT22;23154;52.542;13.362;2022-09-13T12:11:34;18.70;99.90
37268;DHT22;23154;52.542;13.362;2022-09-13T12:14:11;18.50;99.90
37268;DHT22;23154;52.542;13.362;2022-09-13T12:16:40;18.50;99.90
37268;DHT22;23154;52.542;13.362;2022-09-13T12:19:18;18.30;99.90
37268;DHT22;23154;52.542;13.362;2022-09-13T12:21:46;18.30;99.90
37268;DHT22;23154;52.542;13.362;2022-09-13T12:24:20;18.30;99.90
37268;DHT22;23154;52.542;13.362;2022-09-13T12:32:09;19.00;99.90
37268;DHT22;23154;52.542;13.362;2022-09-13T12:34:49;19.00;99.90
37268;DHT22;23154;52.542;13.362;2022-09-13T12:43:22;19.50;99.90
37268;DHT22;23154;52.542;13.362;2022-09-13T12:49:12;19.70;99.90
37268;DHT22;23154;52.542;13.362;2022-09-13T12:54:49;19.70;99.90
37268;DHT22;23154;52.542;13.362;2022-09-13T12:57:47;19.60;99.90
37268;DHT22;23154;52.542;13.362;2022-09-13T13:00:26;19.60;99.90
37268;DHT22;23154;52.542;13.362;2022-09-13T13:05:29;19.60;99.90
37268;DHT22;23154;52.542;13.362;2022-09-13T13:08:00;19.70;99.90
37268;DHT22;23154;52.542;13.362;2022-09-13T13:10:30;19.40;99.90
37268;DHT22;23154;52.542;13.362;2022-09-13T13:13:12;19.20;99.90
37268;DHT22;23154;52.542;13.362;2022-09-13T13:21:04;18.90;99.90
37268;DHT22;23154;52.542;13.362;2022-09-13T13:29:02;18.80;99.90
37268;DHT22;23154;52.542;13.362;2022-09-13T13:31:34;19.10;99.90
37268;DHT22;23154;52.542;13.362;2022-09-13T13:34:01;19.40;99.90
37268;DHT22;23154;52.542;13.362;2022-09-13T13:36:42;19.60;99.90
37268;DHT22;23154;52.542;13.362;2022-09-13T13:42:25;20.30;99.90
37268;DHT22;23154;52.542;13.362;2022-09-13T14:00:23;20.90;99.90
37268;DHT22;23154;52.542;13.362;2022-09-13T14:05:36;21.40;99.90
37268;DHT22;23154;52.542;13.362;2022-09-13T14:11:21;21.30;99.90
37268;DHT22;23154;52.542;13.362;2022-09-13T14:17:00;21.00;99.90
37268;DHT22;23154;52.542;13.362;2022-09-13T14:19:39;21.00;99.90
37268;DHT22;23154;52.542;13.362;2022-09-13T14:22:17;21.50;99.90
37268;DHT22;23154;52.542;13.362;2022-09-13T14:24:47;21.60;99.90
37268;DHT22;23154;52.542;13.362;2022-09-13T14:27:26;21.90;99.90
37268;DHT22;23154;52.542;13.362;2022-09-13T14:29:58;21.80;99.90
37268;DHT22;23154;52.542;13.362;2022-09-13T14:32:27;21.50;99.90
37268;DHT22;23154;52.542;13.362;2022-09-13T14:37:22;21.00;99.90
37268;DHT22;23154;52.542;13.362;2022-09-13T14:40:01;20.90;99.90
37268;DHT22;23154;52.542;13.362;2022-09-13T14:42:42;20.80;99.90
37268;DHT22;23154;52.542;13.362;2022-09-13T14:45:20;20.70;99.90
37268;DHT22;23154;52.542;13.362;2022-09-13T14:48:37;20.70;99.90
37268;DHT22;23154;52.542;13.362;2022-09-13T14:50:59;20.70;99.90
37268;DHT22;23154;52.542;13.362;2022-09-13T14:53:28;20.90;99.90
37268;DHT22;23154;52.542;13.362;2022-09-13T14:56:06;21.00;99.90
37268;DHT22;23154;52.542;13.362;2022-09-13T14:58:43;20.80;99.90
37268;DHT22;23154;52.542;13.362;2022-09-13T15:01:13;20.90;99.90
37268;DHT22;23154;52.542;13.362;2022-09-13T15:03:41;21.10;99.90
37268;DHT22;23154;52.542;13.362;2022-09-13T15:06:33;21.20;99.90
37268;DHT22;23154;52.542;13.362;2022-09-13T15:11:58;21.10;99.90
37268;DHT22;23154;52.542;13.362;2022-09-13T15:14:31;20.90;99.90
37268;DHT22;23154;52.542;13.362;2022-09-13T15:17:10;21.40;99.90
37268;DHT22;23154;52.542;13.362;2022-09-13T15:19:48;22.00;99.90
37268;DHT22;23154;52.542;13.362;2022-09-13T15:22:33;22.40;99.90
37268;DHT22;23154;52.542;13.362;2022-09-13T15:25:01;22.60;99.90
37268;DHT22;23154;52.542;13.362;2022-09-13T15:27:41;22.70;99.90
37268;DHT22;23154;52.542;13.362;2022-09-13T15:30:28;22.90;99.90
37268;DHT22;23154;52.542;13.362;2022-09-13T15:35:45;23.10;99.90
37268;DHT22;23154;52.542;13.362;2022-09-13T15:38:26;23.20;99.90
37268;DHT22;23154;52.542;13.362;2022-09-13T15:41:15;22.90;99.90
37268;DHT22;23154;52.542;13.362;2022-09-13T15:43:42;22.30;99.90
37268;DHT22;23154;52.542;13.362;2022-09-13T15:46:13;22.00;99.90
37268;DHT22;23154;52.542;13.362;2022-09-13T15:48:42;21.60;99.90
37268;DHT22;23154;52.542;13.362;2022-09-13T15:51:14;21.40;99.90
37268;DHT22;23154;52.542;13.362;2022-09-13T15:53:41;21.60;99.90
37268;DHT22;23154;52.542;13.362;2022-09-13T15:56:17;21.50;99.90
37268;DHT22;23154;52.542;13.362;2022-09-13T15:58:43;21.40;99.90
37268;DHT22;23154;52.542;13.362;2022-09-13T16:01:11;21.10;99.90
37268;DHT22;23154;52.542;13.362;2022-09-13T16:03:37;20.80;99.90
37268;DHT22;23154;52.542;13.362;2022-09-13T16:06:04;20.50;99.90
37268;DHT22;23154;52.542;13.362;2022-09-13T16:08:31;20.30;99.90
37268;DHT22;23154;52.542;13.362;2022-09-13T16:10:56;20.20;99.90
37268;DHT22;23154;52.542;13.362;2022-09-13T16:13:27;20.00;99.90
37268;DHT22;23154;52.542;13.362;2022-09-13T16:15:55;20.10;99.90
37268;DHT22;23154;52.542;13.362;2022-09-13T16:18:22;20.10;99.90
37268;DHT22;23154;52.542;13.362;2022-09-13T16:20:49;20.00;99.90
37268;DHT22;23154;52.542;13.362;2022-09-13T16:23:15;20.00;99.90
37268;DHT22;23154;52.542;13.362;2022-09-13T16:25:42;20.00;99.90
37268;DHT22;23154;52.542;13.362;2022-09-13T16:28:14;19.90;99.90
37268;DHT22;23154;52.542;13.362;2022-09-13T16:30:41;19.90;99.90
37268;DHT22;23154;52.542;13.362;2022-09-13T16:33:07;19.90;99.90
37268;DHT22;23154;52.542;13.362;2022-09-13T16:35:34;19.90;99.90
37268;DHT22;23154;52.542;13.362;2022-09-13T16:38:00;19.80;99.90
37268;DHT22;23154;52.542;13.362;2022-09-13T16:40:25;19.60;99.90
37268;DHT22;23154;52.542;13.362;2022-09-13T16:42:51;19.60;99.90
37268;DHT22;23154;52.542;13.362;2022-09-13T16:45:17;19.50;99.90
37268;DHT22;23154;52.542;13.362;2022-09-13T16:47:42;19.50;99.90
37268;DHT22;23154;52.542;13.362;2022-09-13T16:50:09;19.70;99.90
37268;DHT22;23154;52.542;13.362;2022-09-13T16:52:35;19.60;99.90
37268;DHT22;23154;52.542;13.362;2022-09-13T16:55:01;19.60;99.90
37268;DHT22;23154;52.542;13.362;2022-09-13T16:57:28;19.60;99.90
37268;DHT22;23154;52.542;13.362;2022-09-13T16:59:54;19.50;99.90
37268;DHT22;23154;52.542;13.362;2022-09-13T17:02:24;19.50;99.90
37268;DHT22;23154;52.542;13.362;2022-09-13T17:04:50;19.40;99.90
37268;DHT22;23154;52.542;13.362;2022-09-13T17:07:15;19.20;99.90
37268;DHT22;23154;52.542;13.362;2022-09-13T17:09:41;19.10;99.90
37268;DHT22;23154;52.542;13.362;2022-09-13T17:12:09;19.00;99.90
37268;DHT22;23154;52.542;13.362;2022-09-13T17:14:35;18.90;99.90
37268;DHT22;23154;52.542;13.362;2022-09-13T17:17:02;18.70;99.90
37268;DHT22;23154;52.542;13.362;2022-09-13T17:19:30;18.70;99.90
37268;DHT22;23154;52.542;13.362;2022-09-13T17:21:58;18.50;99.90
37268;DHT22;23154;52.542;13.362;2022-09-13T17:24:27;18.50;99.90
37268;DHT22;23154;52.542;13.362;2022-09-13T17:26:55;18.50;99.90
37268;DHT22;23154;52.542;13.362;2022-09-13T17:29:21;18.40;99.90
37268;DHT22;23154;52.542;13.362;2022-09-13T17:31:46;18.40;99.90
37268;DHT22;23154;52.542;13.362;2022-09-13T17:34:13;18.40;99.90
37268;DHT22;23154;52.542;13.362;2022-09-13T17:36:40;18.30;99.90
37268;DHT22;23154;52.542;13.362;2022-09-13T17:39:06;18.30;99.90
37268;DHT22;23154;52.542;13.362;2022-09-13T17:41:32;18.20;99.90
37268;DHT22;23154;52.542;13.362;2022-09-13T17:43:57;18.20;99.90
37268;DHT22;23154;52.542;13.362;2022-09-13T17:46:25;18.20;99.90
37268;DHT22;23154;52.542;13.362;2022-09-13T17:48:54;18.10;99.90
37268;DHT22;23154;52.542;13.362;2022-09-13T17:51:23;18.10;99.90
37268;DHT22;23154;52.542;13.362;2022-09-13T17:53:51;18.00;99.90
37268;DHT22;23154;52.542;13.362;2022-09-13T17:56:18;18.00;99.90
37268;DHT22;23154;52.542;13.362;2022-09-13T17:58:45;18.00;99.90
37268;DHT22;23154;52.542;13.362;2022-09-13T18:01:12;18.00;99.90
37268;DHT22;23154;52.542;13.362;2022-09-13T18:03:38;18.00;99.90
37268;DHT22;23154;52.542;13.362;2022-09-13T18:06:05;18.00;99.90
37268;DHT22;23154;52.542;13.362;2022-09-13T18:08:33;18.00;99.90
37268;DHT22;23154;52.542;13.362;2022-09-13T18:11:10;18.00;99.90
37268;DHT22;23154;52.542;13.362;2022-09-13T18:13:38;18.10;99.90
37268;DHT22;23154;52.542;13.362;2022-09-13T18:16:07;18.10;99.90
37268;DHT22;23154;52.542;13.362;2022-09-13T18:18:35;18.10;99.90
37268;DHT22;23154;52.542;13.362;2022-09-13T18:21:02;18.10;99.90
37268;DHT22;23154;52.542;13.362;2022-09-13T18:23:27;18.10;99.90
37268;DHT22;23154;52.542;13.362;2022-09-13T18:26:05;18.10;99.90
37268;DHT22;23154;52.542;13.362;2022-09-13T18:28:32;18.00;99.90
37268;DHT22;23154;52.542;13.362;2022-09-13T18:31:01;17.90;99.90
37268;DHT22;23154;52.542;13.362;2022-09-13T18:33:28;17.80;99.90
37268;DHT22;23154;52.542;13.362;2022-09-13T18:36:05;17.70;99.90
37268;DHT22;23154;52.542;13.362;2022-09-13T18:38:34;17.70;99.90
37268;DHT22;23154;52.542;13.362;2022-09-13T18:41:07;17.60;99.90
37268;DHT22;23154;52.542;13.362;2022-09-13T18:43:34;17.60;99.90
37268;DHT22;23154;52.542;13.362;2022-09-13T18:46:02;17.50;99.90
37268;DHT22;23154;52.542;13.362;2022-09-13T18:48:38;17.50;99.90